Terminal Aerodrome Forecast
Issued by NWS

Home | Current Version | Previous Version | Text Only | Print | Product List | Glossary On
Versions: 1 2 3 4 5 6 7 8 9 10 11 12 13 14 15 16 17 18 19 20 21 22 23
000
FTUS43 KDVN 191735
TAFCID
TAF
KCID 191735Z 1918/2018 35009KT P6SM FEW035 SCT250
     FM200700 02006KT P6SM SCT070 OVC120
     FM201000 04006KT P6SM VCSH BKN060 OVC100
     FM201200 04006KT P6SM -SHRA SCT030 OVC050
     FM201500 06007KT P6SM -RA SCT009 OVC012=

USA.gov is the U.S. government's official web portal to all federal, state and local government web resources and services.